createdAt,value
2022-08-24T00:02:15.531Z,15.00
2022-08-24T00:07:27.456Z,15.10
2022-08-24T00:12:31.083Z,15.20
2022-08-24T00:17:34.285Z,15.10
2022-08-24T00:22:36.214Z,14.90
2022-08-24T00:27:39.546Z,15.10
2022-08-24T00:32:42.987Z,15.00
2022-08-24T00:37:46.448Z,14.90
2022-08-24T00:42:48.289Z,14.80
2022-08-24T00:47:55.857Z,14.90
2022-08-24T00:53:01.919Z,14.90
2022-08-24T00:58:16.347Z,14.90
2022-08-24T01:03:20.982Z,14.80
2022-08-24T01:08:23.900Z,14.80
2022-08-24T01:13:26.191Z,14.80
2022-08-24T01:18:47.148Z,14.70
2022-08-24T01:23:52.575Z,14.70
2022-08-24T01:29:02.820Z,14.90
2022-08-24T01:34:07.090Z,14.70
2022-08-24T01:39:31.221Z,14.60
2022-08-24T01:44:34.574Z,14.60
2022-08-24T01:49:44.719Z,14.70
2022-08-24T01:54:46.995Z,14.70
2022-08-24T01:59:52.083Z,14.60
2022-08-24T02:04:54.053Z,14.60
2022-08-24T02:09:56.797Z,14.50
2022-08-24T02:15:00.758Z,14.50
2022-08-24T02:20:05.126Z,14.50
2022-08-24T02:25:07.344Z,14.40
2022-08-24T02:30:12.278Z,14.50
2022-08-24T02:35:17.383Z,14.50
2022-08-24T02:40:19.394Z,14.40
2022-08-24T02:45:21.920Z,14.30
2022-08-24T02:50:24.001Z,14.30
2022-08-24T02:55:26.012Z,14.30
2022-08-24T03:00:28.007Z,14.30
2022-08-24T03:05:31.299Z,14.30
2022-08-24T03:10:33.388Z,14.30
2022-08-24T03:15:36.856Z,14.40
2022-08-24T03:20:39.074Z,14.40
2022-08-24T03:25:41.003Z,14.40
2022-08-24T03:30:46.839Z,14.50
2022-08-24T03:35:51.294Z,14.60
2022-08-24T03:40:56.368Z,14.60
2022-08-24T03:45:59.085Z,14.70
2022-08-24T03:51:01.235Z,14.80
2022-08-24T03:56:06.939Z,14.80
2022-08-24T04:01:09.847Z,14.90
2022-08-24T04:06:14.062Z,15.00
2022-08-24T04:11:21.367Z,15.00
2022-08-24T04:16:24.979Z,15.10
2022-08-24T04:21:37.074Z,15.10
2022-08-24T04:26:44.516Z,15.10
2022-08-24T04:31:48.954Z,15.20
2022-08-24T04:36:51.289Z,15.20
2022-08-24T04:41:53.411Z,15.30
2022-08-24T04:46:56.755Z,15.30
2022-08-24T04:51:58.879Z,15.40
2022-08-24T04:57:01.066Z,15.50
2022-08-24T05:02:03.369Z,15.60
2022-08-24T05:07:06.227Z,15.70
2022-08-24T05:12:08.748Z,15.80
2022-08-24T05:17:14.503Z,15.80
2022-08-24T05:22:19.179Z,15.90
2022-08-24T05:27:25.235Z,16.10
2022-08-24T05:32:27.792Z,16.20
2022-08-24T05:37:30.604Z,16.20
2022-08-24T05:42:51.131Z,16.30
2022-08-24T05:47:53.055Z,16.40
2022-08-24T05:53:24.738Z,16.50
2022-08-24T05:58:31.045Z,16.60
2022-08-24T06:03:37.913Z,16.70
2022-08-24T06:08:48.506Z,16.90
2022-08-24T06:13:56.282Z,17.00
2022-08-24T06:19:04.025Z,17.10
2022-08-24T06:24:07.072Z,17.20
2022-08-24T06:29:10.574Z,17.30
2022-08-24T06:34:19.375Z,17.40
2022-08-24T06:39:21.290Z,17.40
2022-08-24T06:44:25.222Z,17.50
2022-08-24T06:49:37.379Z,17.60
2022-08-24T06:54:39.735Z,17.80
2022-08-24T06:59:43.180Z,17.90
2022-08-24T07:04:46.194Z,18.10
2022-08-24T07:10:09.264Z,18.20
2022-08-24T07:15:16.368Z,18.40
2022-08-24T07:20:24.968Z,18.50
2022-08-24T07:25:46.246Z,18.60
2022-08-24T07:30:51.599Z,18.80
2022-08-24T07:35:56.308Z,18.90
2022-08-24T07:41:33.266Z,19.00
2022-08-24T07:46:24.799Z,19.20
2022-08-24T07:51:29.068Z,19.40
2022-08-24T07:56:31.799Z,19.50
2022-08-24T08:01:38.498Z,19.90
2022-08-24T08:06:42.347Z,20.30
2022-08-24T08:11:45.304Z,20.40
2022-08-24T08:16:47.438Z,20.60
2022-08-24T08:22:10.116Z,20.60
2022-08-24T08:27:33.012Z,20.60
2022-08-24T08:32:35.395Z,20.50
2022-08-24T08:37:37.425Z,20.50
2022-08-24T08:43:04.014Z,20.60
2022-08-24T08:48:38.131Z,21.10
2022-08-24T08:54:11.784Z,21.80
2022-08-24T08:59:32.757Z,21.80
2022-08-24T09:05:22.257Z,21.70
2022-08-24T09:10:48.004Z,21.60
2022-08-24T09:16:16.360Z,21.50
2022-08-24T09:21:50.071Z,21.30
2022-08-24T09:27:17.867Z,21.30
2022-08-24T09:33:15.171Z,21.30
2022-08-24T09:38:54.736Z,21.50
2022-08-24T09:44:09.454Z,21.70
2022-08-24T09:49:26.756Z,21.70
2022-08-24T09:55:04.973Z,21.90
2022-08-24T10:00:18.567Z,21.90
2022-08-24T10:05:49.406Z,22.20
2022-08-24T10:11:09.566Z,22.50
2022-08-24T10:16:20.412Z,22.60
2022-08-24T10:21:45.190Z,22.70
2022-08-24T10:27:04.410Z,22.80
2022-08-24T10:32:40.908Z,22.90
2022-08-24T10:38:33.302Z,23.00
2022-08-24T10:44:07.154Z,23.40
2022-08-24T10:49:29.316Z,24.00
2022-08-24T10:54:34.125Z,24.30
2022-08-24T10:59:58.055Z,24.10
2022-08-24T11:05:02.731Z,24.10
2022-08-24T11:10:08.601Z,24.00
2022-08-24T11:15:17.524Z,23.80
2022-08-24T11:20:47.812Z,23.70
2022-08-24T11:26:14.338Z,23.60
2022-08-24T11:31:35.402Z,23.50
2022-08-24T11:36:41.809Z,23.50
2022-08-24T11:42:11.911Z,23.40
2022-08-24T11:47:19.785Z,23.40
2022-08-24T11:52:43.581Z,23.30
2022-08-24T11:58:05.695Z,23.30
2022-08-24T12:03:11.891Z,23.20
2022-08-24T12:08:42.814Z,23.30
2022-08-24T12:14:29.639Z,23.30
2022-08-24T12:19:36.257Z,23.30
2022-08-24T12:24:49.145Z,23.20
2022-08-24T12:29:58.879Z,23.20
2022-08-24T12:35:12.935Z,23.20
2022-08-24T12:40:45.145Z,23.20
2022-08-24T12:45:48.757Z,23.20
2022-08-24T12:51:31.792Z,23.20
2022-08-24T12:57:05.178Z,23.20
2022-08-24T13:02:28.104Z,23.30
2022-08-24T13:07:38.958Z,23.30
2022-08-24T13:12:41.904Z,23.40
2022-08-24T13:17:43.803Z,23.40
2022-08-24T13:22:48.934Z,23.40
2022-08-24T13:28:04.642Z,23.50
2022-08-24T13:33:10.868Z,23.50
2022-08-24T13:38:33.806Z,23.40
2022-08-24T13:44:01.584Z,23.20
2022-08-24T13:49:38.551Z,23.10
2022-08-24T13:55:09.194Z,22.90
2022-08-24T14:00:28.750Z,22.90
2022-08-24T14:05:49.776Z,22.80
2022-08-24T14:11:11.998Z,22.80
2022-08-24T14:16:59.787Z,22.80
2022-08-24T14:22:09.307Z,22.70
2022-08-24T14:27:48.848Z,22.80
2022-08-24T14:32:59.628Z,22.80
2022-08-24T14:38:13.580Z,22.80
2022-08-24T14:43:34.145Z,22.90
2022-08-24T14:48:41.619Z,22.90
2022-08-24T14:53:58.637Z,23.00
2022-08-24T14:59:16.029Z,23.00
2022-08-24T15:04:37.741Z,23.00
2022-08-24T15:09:43.082Z,23.10
2022-08-24T15:14:58.600Z,23.10
2022-08-24T15:20:09.094Z,23.00
2022-08-24T15:25:19.200Z,23.10
2022-08-24T15:30:31.671Z,23.10
2022-08-24T15:35:41.520Z,23.10
2022-08-24T15:40:46.021Z,23.10
2022-08-24T15:45:51.424Z,23.10
2022-08-24T15:50:55.901Z,23.10
2022-08-24T15:56:19.856Z,23.10
2022-08-24T16:01:46.811Z,23.10
2022-08-24T16:06:49.068Z,23.10
2022-08-24T16:12:00.974Z,23.00
2022-08-24T16:17:18.776Z,23.00
2022-08-24T16:22:33.221Z,22.90
2022-08-24T16:27:53.330Z,22.80
2022-08-24T16:32:57.690Z,22.80
2022-08-24T16:38:00.790Z,22.70
2022-08-24T16:43:03.128Z,22.50
2022-08-24T16:48:05.337Z,22.40
2022-08-24T16:53:07.507Z,22.30
2022-08-24T16:58:09.568Z,22.20
2022-08-24T17:03:14.958Z,22.10
2022-08-24T17:08:17.494Z,21.90
2022-08-24T17:13:46.222Z,21.70
2022-08-24T17:18:42.659Z,21.60
2022-08-24T17:23:45.012Z,21.40
2022-08-24T17:28:49.608Z,21.20
2022-08-24T17:33:52.944Z,21.00
2022-08-24T17:38:57.291Z,20.90
2022-08-24T17:44:01.099Z,20.70
2022-08-24T17:49:03.848Z,20.50
2022-08-24T17:54:05.712Z,20.50
2022-08-24T17:59:22.820Z,20.30
2022-08-24T18:04:29.612Z,20.20
2022-08-24T18:09:47.750Z,20.00
2022-08-24T18:14:50.700Z,19.90
2022-08-24T18:19:57.059Z,19.70
2022-08-24T18:24:58.845Z,19.60
2022-08-24T18:30:04.883Z,19.50
2022-08-24T18:35:07.842Z,19.40
2022-08-24T18:40:11.000Z,19.30
2022-08-24T18:45:18.075Z,19.30
2022-08-24T18:50:20.188Z,19.20
2022-08-24T18:55:24.100Z,19.10
2022-08-24T19:00:25.875Z,19.10
2022-08-24T19:05:27.682Z,19.00
2022-08-24T19:10:35.542Z,18.90
2022-08-24T19:15:40.386Z,18.90
2022-08-24T19:20:48.393Z,18.80
2022-08-24T19:25:50.653Z,18.70
2022-08-24T19:30:57.190Z,18.70
2022-08-24T19:35:59.626Z,18.60
2022-08-24T19:41:11.837Z,18.50
2022-08-24T19:46:14.670Z,18.50
2022-08-24T19:51:16.560Z,18.40
2022-08-24T19:56:18.764Z,18.40
2022-08-24T20:01:27.323Z,18.30
2022-08-24T20:06:31.245Z,18.30
2022-08-24T20:11:33.374Z,18.30
2022-08-24T20:16:39.666Z,18.20
2022-08-24T20:21:41.642Z,18.20
2022-08-24T20:26:45.185Z,18.30
2022-08-24T20:31:50.477Z,18.40
2022-08-24T20:36:52.914Z,18.60
2022-08-24T20:41:55.381Z,18.70
2022-08-24T20:46:58.302Z,18.80
2022-08-24T20:52:03.005Z,18.70
2022-08-24T20:57:07.980Z,18.60
2022-08-24T21:02:09.926Z,18.30
2022-08-24T21:07:13.196Z,18.20
2022-08-24T21:12:14.952Z,18.10
2022-08-24T21:17:17.090Z,18.00
2022-08-24T21:22:19.955Z,17.90
2022-08-24T21:27:21.807Z,17.80
2022-08-24T21:32:42.136Z,17.80
2022-08-24T21:37:44.058Z,17.70
2022-08-24T21:42:45.929Z,17.70
2022-08-24T21:47:48.392Z,17.60
2022-08-24T21:52:51.191Z,17.50
2022-08-24T21:57:55.355Z,17.60
2022-08-24T22:02:57.171Z,17.50
2022-08-24T22:07:59.012Z,17.50
2022-08-24T22:13:04.140Z,17.50
2022-08-24T22:18:06.419Z,17.40
2022-08-24T22:23:08.287Z,17.40
2022-08-24T22:28:10.220Z,17.40
2022-08-24T22:33:11.983Z,17.30
2022-08-24T22:38:13.855Z,17.20
2022-08-24T22:43:15.863Z,17.10
2022-08-24T22:48:17.739Z,17.10
2022-08-24T22:53:19.580Z,17.00
2022-08-24T22:58:21.355Z,17.00
2022-08-24T23:03:23.131Z,16.90
2022-08-24T23:08:25.259Z,16.90
2022-08-24T23:13:28.796Z,16.90
2022-08-24T23:18:49.108Z,16.90
2022-08-24T23:23:51.267Z,16.80
2022-08-24T23:28:53.089Z,16.80
2022-08-24T23:33:55.038Z,16.70
2022-08-24T23:38:58.738Z,16.70
2022-08-24T23:44:03.884Z,16.60
2022-08-24T23:49:07.562Z,16.60
2022-08-24T23:54:10.710Z,16.70
2022-08-24T23:59:21.044Z,16.70
